Time;durP1;ratioP1;P1;durP2;ratioP2;P2;SDS_P1;SDS_P2;PMS_P1;PMS_P2;Temp;Humidity;BMP_temperature;BMP_pressure;BME280_temperature;BME280_humidity;BME280_pressure;Samples;Min_cycle;Max_cycle;Signal;HPM_P1;HPM_P2
2023/09/05 00:01:42;;;;;;;;;;;14.50;64.90;;;;;;4104076;28;20004;-86
2023/09/05 00:03:42;;;;;;;;;;;14.40;64.90;;;;;;4103741;28;19965;-88
2023/09/05 00:05:43;;;;;;;;;;;14.40;64.80;;;;;;4102588;28;19965;-87
2023/09/05 00:08:04;;;;;;;;;;;14.40;64.90;;;;;;4104957;28;19965;-86
2023/09/05 00:10:25;;;;;;;;;;;14.40;64.90;;;;;;4105201;28;19929;-85
2023/09/05 00:12:46;;;;;;;;;;;14.40;65.00;;;;;;4107112;28;19922;-86
2023/09/05 00:15:08;;;;;;;;;;;14.30;64.90;;;;;;4105513;28;19923;-86
2023/09/05 00:17:29;;;;;;;;;;;14.40;64.90;;;;;;4105454;28;19921;-85
2023/09/05 00:19:49;;;;;;;;;;;14.30;65.00;;;;;;4103610;28;19922;-88
2023/09/05 00:22:11;;;;;;;;;;;14.40;65.30;;;;;;4105648;28;19918;-87
2023/09/05 00:24:31;;;;;;;;;;;14.30;65.30;;;;;;4103453;28;19998;-88
2023/09/05 00:26:52;;;;;;;;;;;14.40;65.50;;;;;;4106369;28;19929;-87
2023/09/05 00:29:12;;;;;;;;;;;14.30;65.50;;;;;;4106069;28;19952;-86
2023/09/05 00:31:35;;;;;;;;;;;14.30;65.60;;;;;;4107341;28;19915;-86
2023/09/05 00:33:55;;;;;;;;;;;14.30;65.60;;;;;;4107052;28;19914;-86
2023/09/05 00:36:16;;;;;;;;;;;14.30;65.70;;;;;;4120534;28;19922;-87
2023/09/05 00:38:36;;;;;;;;;;;14.30;65.60;;;;;;4110651;28;20458;-87
2023/09/05 00:40:57;;;;;;;;;;;14.30;65.80;;;;;;4110296;28;19922;-87
2023/09/05 00:43:19;;;;;;;;;;;14.20;65.70;;;;;;4114246;28;19961;-86
2023/09/05 00:45:43;;;;;;;;;;;14.20;65.70;;;;;;4100985;28;19922;-86
2023/09/05 00:48:07;;;;;;;;;;;14.10;65.80;;;;;;4104806;28;19915;-86
2023/09/05 00:50:27;;;;;;;;;;;14.10;65.80;;;;;;4115300;28;19929;-86
2023/09/05 00:52:48;;;;;;;;;;;14.20;65.80;;;;;;4103988;28;19993;-86
2023/09/05 00:55:15;;;;;;;;;;;14.20;65.90;;;;;;4109397;28;19922;-86
2023/09/05 00:57:39;;;;;;;;;;;14.10;65.90;;;;;;4107218;28;19961;-87
2023/09/05 01:00:00;;;;;;;;;;;14.00;65.80;;;;;;4091052;28;19995;-87
2023/09/05 01:02:20;;;;;;;;;;;14.10;66.00;;;;;;4103816;28;19938;-86
2023/09/05 01:04:44;;;;;;;;;;;14.00;66.10;;;;;;4106360;28;20071;-86
2023/09/05 01:07:10;;;;;;;;;;;14.10;66.20;;;;;;4104175;28;19918;-87
2023/09/05 01:09:42;;;;;;;;;;;14.00;66.30;;;;;;4119760;28;19922;-85
2023/09/05 01:12:02;;;;;;;;;;;14.00;66.30;;;;;;4103268;28;19922;-88
2023/09/05 01:14:23;;;;;;;;;;;13.90;66.30;;;;;;4102861;28;19926;-86
2023/09/05 01:16:45;;;;;;;;;;;13.90;66.30;;;;;;4111971;28;19929;-86
2023/09/05 01:19:08;;;;;;;;;;;13.90;66.20;;;;;;4102162;28;19965;-87
2023/09/05 01:21:31;;;;;;;;;;;13.90;67.10;;;;;;4099695;28;19933;-86
2023/09/05 01:24:01;;;;;;;;;;;13.90;66.40;;;;;;4117720;28;19923;-85
2023/09/05 01:26:22;;;;;;;;;;;13.90;66.40;;;;;;4103816;28;19933;-86
2023/09/05 01:28:44;;;;;;;;;;;13.90;66.50;;;;;;4104519;28;19932;-86
2023/09/05 01:31:04;;;;;;;;;;;13.90;66.50;;;;;;4103514;28;20013;-86
2023/09/05 01:33:25;;;;;;;;;;;13.80;66.70;;;;;;4101412;28;20458;-86
2023/09/05 01:35:48;;;;;;;;;;;13.80;67.60;;;;;;4102661;28;19914;-88
2023/09/05 01:38:13;;;;;;;;;;;13.80;66.80;;;;;;4118027;28;19917;-85
2023/09/05 01:40:34;;;;;;;;;;;13.80;66.80;;;;;;4105193;28;19922;-87
2023/09/05 01:42:53;;;;;;;;;;;13.80;66.80;;;;;;4105151;28;20074;-84
2023/09/05 01:45:12;;;;;;;;;;;13.80;66.90;;;;;;4115375;28;20374;-86
2023/09/05 01:47:32;;;;;;;;;;;13.90;67.10;;;;;;4103804;28;20433;-86
2023/09/05 01:49:51;;;;;;;;;;;13.70;67.00;;;;;;4101780;28;19960;-86
2023/09/05 01:52:10;;;;;;;;;;;13.70;67.70;;;;;;4116984;28;19928;-88
2023/09/05 01:54:29;;;;;;;;;;;13.60;67.00;;;;;;4101628;28;20015;-86
2023/09/05 01:56:48;;;;;;;;;;;13.70;67.10;;;;;;4118560;28;20000;-86
2023/09/05 01:59:08;;;;;;;;;;;13.60;67.00;;;;;;4107972;28;19921;-84
2023/09/05 02:01:27;;;;;;;;;;;13.60;67.10;;;;;;4100737;28;19969;-86
2023/09/05 02:03:48;;;;;;;;;;;13.60;67.10;;;;;;4107512;28;19924;-86
2023/09/05 02:06:07;;;;;;;;;;;13.60;67.80;;;;;;4105565;28;20607;-85
2023/09/05 02:08:26;;;;;;;;;;;13.50;67.20;;;;;;4109075;28;19972;-86
2023/09/05 02:10:45;;;;;;;;;;;13.50;67.20;;;;;;4105438;28;19925;-87
2023/09/05 02:13:05;;;;;;;;;;;13.40;67.20;;;;;;4122310;28;19964;-86
2023/09/05 02:15:24;;;;;;;;;;;13.40;67.30;;;;;;4106346;28;19924;-86
2023/09/05 02:17:43;;;;;;;;;;;13.40;67.40;;;;;;4107464;28;20354;-86
2023/09/05 02:20:05;;;;;;;;;;;13.50;67.40;;;;;;4118073;28;20023;-85
2023/09/05 02:22:25;;;;;;;;;;;13.40;67.40;;;;;;4120264;28;19933;-86
2023/09/05 02:24:44;;;;;;;;;;;13.40;67.40;;;;;;4110091;28;20547;-87
2023/09/05 02:27:03;;;;;;;;;;;13.30;68.20;;;;;;4104868;28;19952;-86
2023/09/05 02:29:26;;;;;;;;;;;13.30;67.40;;;;;;4121411;28;20337;-88
2023/09/05 02:31:45;;;;;;;;;;;13.30;67.50;;;;;;4108496;28;20065;-87
2023/09/05 02:34:04;;;;;;;;;;;13.30;67.50;;;;;;4105623;28;19922;-86
2023/09/05 02:36:30;;;;;;;;;;;13.30;68.30;;;;;;4103166;28;19923;-87
2023/09/05 02:38:49;;;;;;;;;;;13.30;67.50;;;;;;4104730;28;19953;-88
2023/09/05 02:41:12;;;;;;;;;;;13.20;67.40;;;;;;4107899;28;19929;-86
2023/09/05 02:43:34;;;;;;;;;;;13.10;67.40;;;;;;4110727;28;20670;-86
2023/09/05 02:45:54;;;;;;;;;;;13.20;67.60;;;;;;4104300;28;20508;-86
2023/09/05 02:48:13;;;;;;;;;;;13.10;67.60;;;;;;4106412;28;19968;-85
2023/09/05 02:50:33;;;;;;;;;;;13.10;67.60;;;;;;4106522;28;19933;-86
2023/09/05 02:52:52;;;;;;;;;;;13.10;67.70;;;;;;4111879;28;20394;-88
2023/09/05 02:55:11;;;;;;;;;;;13.10;68.50;;;;;;4103363;28;20026;-85
2023/09/05 02:57:30;;;;;;;;;;;13.10;68.50;;;;;;4106444;28;20023;-88
2023/09/05 02:59:53;;;;;;;;;;;13.00;67.60;;;;;;4098606;28;20287;-86
2023/09/05 03:02:12;;;;;;;;;;;13.00;67.60;;;;;;4104540;28;19920;-86
2023/09/05 03:04:32;;;;;;;;;;;13.10;67.60;;;;;;4108216;28;19961;-85
2023/09/05 03:06:51;;;;;;;;;;;13.10;68.20;;;;;;4105004;28;19929;-89
2023/09/05 03:09:10;;;;;;;;;;;12.90;67.60;;;;;;4104778;28;19932;-86
2023/09/05 03:11:22;;;;;;;;;;;12.90;67.60;;;;;;4104543;28;20016;-87
2023/09/05 03:13:25;;;;;;;;;;;13.00;67.80;;;;;;4108991;28;20069;-87
2023/09/05 03:15:26;;;;;;;;;;;12.90;67.90;;;;;;4102344;28;19969;-85
2023/09/05 03:17:26;;;;;;;;;;;13.00;68.00;;;;;;4104762;28;19917;-86
2023/09/05 03:19:27;;;;;;;;;;;12.90;67.80;;;;;;4106016;28;19921;-86
2023/09/05 03:21:28;;;;;;;;;;;12.90;67.80;;;;;;4101128;28;19925;-86
2023/09/05 03:23:28;;;;;;;;;;;12.90;68.00;;;;;;4103905;28;20430;-86
2023/09/05 03:25:29;;;;;;;;;;;12.90;68.10;;;;;;4111527;28;20644;-87
2023/09/05 03:27:30;;;;;;;;;;;13.00;68.10;;;;;;4100660;28;19924;-87
2023/09/05 03:29:30;;;;;;;;;;;12.90;68.20;;;;;;4107368;28;19914;-88
2023/09/05 03:31:31;;;;;;;;;;;12.90;68.30;;;;;;4115436;28;20414;-85
2023/09/05 03:33:31;;;;;;;;;;;12.90;68.40;;;;;;4107998;28;20521;-85
2023/09/05 03:35:32;;;;;;;;;;;13.00;68.50;;;;;;4102566;28;20407;-85
2023/09/05 03:37:33;;;;;;;;;;;13.00;68.40;;;;;;4106610;28;19962;-85
2023/09/05 03:39:34;;;;;;;;;;;12.90;68.40;;;;;;4120570;28;20383;-84
2023/09/05 03:41:40;;;;;;;;;;;12.90;68.40;;;;;;4103416;28;20391;-85
2023/09/05 03:43:41;;;;;;;;;;;12.90;68.40;;;;;;4105923;28;19918;-86
2023/09/05 03:45:44;;;;;;;;;;;12.90;68.40;;;;;;4104332;28;20364;-86
2023/09/05 03:48:05;;;;;;;;;;;12.90;68.40;;;;;;4118902;28;20111;-86
2023/09/05 03:50:25;;;;;;;;;;;12.80;68.30;;;;;;4103624;28;19918;-86
2023/09/05 03:52:46;;;;;;;;;;;12.80;68.30;;;;;;4108682;28;19921;-85
2023/09/05 03:54:58;;;;;;;;;;;12.80;68.30;;;;;;4104974;28;19918;-86
2023/09/05 03:57:19;;;;;;;;;;;13.00;68.50;;;;;;4109542;28;20005;-85
2023/09/05 03:59:42;;;;;;;;;;;12.80;68.40;;;;;;4105278;28;19961;-85
2023/09/05 04:02:02;;;;;;;;;;;12.80;68.50;;;;;;4103325;28;20057;-86
2023/09/05 04:04:23;;;;;;;;;;;12.80;68.40;;;;;;4116405;28;19929;-88
2023/09/05 04:06:43;;;;;;;;;;;12.80;68.50;;;;;;4110319;28;19932;-85
2023/09/05 04:09:04;;;;;;;;;;;12.80;68.50;;;;;;4113907;28;19914;-84
2023/09/05 04:11:05;;;;;;;;;;;12.70;68.50;;;;;;4111278;28;20465;-86
2023/09/05 04:13:05;;;;;;;;;;;12.80;68.50;;;;;;4129634;28;19937;-85
2023/09/05 04:15:26;;;;;;;;;;;12.70;68.60;;;;;;4105645;28;19922;-85
2023/09/05 04:17:30;;;;;;;;;;;12.70;68.60;;;;;;4104738;28;19914;-85
2023/09/05 04:19:51;;;;;;;;;;;12.70;68.60;;;;;;4101059;28;19929;-87
2023/09/05 04:22:12;;;;;;;;;;;12.70;68.60;;;;;;4105112;28;19922;-85
2023/09/05 04:24:36;;;;;;;;;;;12.70;68.70;;;;;;4100639;28;20429;-85
2023/09/05 04:26:58;;;;;;;;;;;12.60;68.70;;;;;;4104588;28;19926;-86
2023/09/05 04:29:19;;;;;;;;;;;12.60;68.70;;;;;;4104473;28;19914;-84
2023/09/05 04:31:42;;;;;;;;;;;12.60;68.80;;;;;;4100136;28;19918;-86
2023/09/05 04:34:05;;;;;;;;;;;12.70;68.80;;;;;;4107767;28;19965;-86
2023/09/05 04:36:26;;;;;;;;;;;12.60;68.80;;;;;;4102128;28;19921;-85
2023/09/05 04:38:49;;;;;;;;;;;12.60;68.80;;;;;;4106168;28;19937;-85
2023/09/05 04:41:10;;;;;;;;;;;12.50;68.70;;;;;;4101211;28;19921;-88
2023/09/05 04:43:31;;;;;;;;;;;12.50;69.50;;;;;;4102351;28;20005;-84
2023/09/05 04:45:55;;;;;;;;;;;12.50;68.60;;;;;;4100052;28;19926;-87
2023/09/05 04:48:15;;;;;;;;;;;12.50;68.50;;;;;;4117874;28;19969;-85
2023/09/05 04:50:36;;;;;;;;;;;12.50;68.60;;;;;;4104601;28;19958;-84
2023/09/05 04:52:57;;;;;;;;;;;12.40;68.60;;;;;;4106724;28;19965;-85
2023/09/05 04:55:17;;;;;;;;;;;12.50;68.70;;;;;;4104347;28;20388;-85
2023/09/05 04:57:38;;;;;;;;;;;12.40;69.20;;;;;;4098635;28;19945;-85
2023/09/05 04:59:59;;;;;;;;;;;12.40;68.90;;;;;;4093919;28;19918;-84
2023/09/05 05:02:19;;;;;;;;;;;12.50;68.90;;;;;;4103986;28;19933;-85
2023/09/05 05:04:41;;;;;;;;;;;12.30;69.60;;;;;;4104302;28;19933;-84
2023/09/05 05:07:04;;;;;;;;;;;12.30;68.80;;;;;;4103858;28;19922;-84
2023/09/05 05:09:25;;;;;;;;;;;12.30;68.80;;;;;;4102682;28;19929;-85
2023/09/05 05:11:45;;;;;;;;;;;12.30;68.90;;;;;;4104847;28;19922;-87
2023/09/05 05:14:06;;;;;;;;;;;12.20;69.00;;;;;;4116666;28;19922;-88
2023/09/05 05:16:26;;;;;;;;;;;12.20;69.00;;;;;;4104005;28;19919;-84
2023/09/05 05:18:47;;;;;;;;;;;12.20;69.10;;;;;;4106264;28;19927;-84
2023/09/05 05:21:07;;;;;;;;;;;12.30;69.20;;;;;;4105764;28;19918;-85
2023/09/05 05:23:28;;;;;;;;;;;12.40;69.40;;;;;;4109176;28;20154;-84
2023/09/05 05:25:48;;;;;;;;;;;12.20;69.40;;;;;;4104499;28;20069;-85
2023/09/05 05:28:09;;;;;;;;;;;12.40;69.60;;;;;;4109568;28;19929;-85
2023/09/05 05:30:33;;;;;;;;;;;12.40;69.70;;;;;;4104268;28;19922;-86
2023/09/05 05:32:54;;;;;;;;;;;12.50;69.80;;;;;;4107445;28;19922;-86
2023/09/05 05:35:14;;;;;;;;;;;12.30;69.80;;;;;;4105870;28;19962;-85
2023/09/05 05:37:34;;;;;;;;;;;12.40;70.10;;;;;;4110607;28;19968;-84
2023/09/05 05:39:54;;;;;;;;;;;12.40;70.30;;;;;;4109406;28;20506;-85
2023/09/05 05:42:13;;;;;;;;;;;12.50;70.70;;;;;;4112265;28;20343;-84
2023/09/05 05:44:33;;;;;;;;;;;12.50;71.00;;;;;;4111260;28;19985;-85
2023/09/05 05:46:57;;;;;;;;;;;12.60;71.20;;;;;;4109326;28;19925;-85
2023/09/05 05:49:16;;;;;;;;;;;12.70;71.40;;;;;;4112235;28;19929;-85
2023/09/05 05:51:37;;;;;;;;;;;12.80;71.50;;;;;;4109269;28;19929;-86
2023/09/05 05:53:56;;;;;;;;;;;12.80;71.60;;;;;;4136913;28;20634;-86
2023/09/05 05:56:15;;;;;;;;;;;12.90;72.00;;;;;;4107495;28;19945;-83
2023/09/05 05:58:35;;;;;;;;;;;13.00;72.10;;;;;;4113466;28;19965;-85
2023/09/05 06:00:57;;;;;;;;;;;13.10;72.20;;;;;;4108743;28;20419;-84
2023/09/05 06:03:17;;;;;;;;;;;13.10;72.40;;;;;;4110753;28;20542;-84
2023/09/05 06:05:37;;;;;;;;;;;13.20;72.60;;;;;;4111999;28;19925;-84
2023/09/05 06:07:56;;;;;;;;;;;13.30;72.80;;;;;;4111337;28;19973;-84
2023/09/05 06:10:15;;;;;;;;;;;13.30;73.50;;;;;;4110722;28;19921;-85
2023/09/05 06:12:35;;;;;;;;;;;13.50;73.70;;;;;;4112808;28;19929;-85
2023/09/05 06:14:54;;;;;;;;;;;13.50;74.30;;;;;;4110702;28;19969;-85
2023/09/05 06:17:13;;;;;;;;;;;13.70;74.10;;;;;;4112467;28;20494;-85
2023/09/05 06:19:32;;;;;;;;;;;13.80;73.30;;;;;;4112823;28;19924;-85
2023/09/05 06:21:52;;;;;;;;;;;13.90;73.10;;;;;;4111395;28;20351;-85
2023/09/05 06:24:11;;;;;;;;;;;13.90;73.60;;;;;;4111459;28;19924;-84
2023/09/05 06:26:33;;;;;;;;;;;14.00;74.00;;;;;;4107382;28;20005;-83
2023/09/05 06:28:53;;;;;;;;;;;14.10;74.90;;;;;;4111913;28;19920;-85
2023/09/05 06:31:12;;;;;;;;;;;14.20;74.40;;;;;;4109659;28;20004;-87
2023/09/05 06:33:31;;;;;;;;;;;14.30;75.10;;;;;;4110875;28;19925;-85
2023/09/05 06:35:51;;;;;;;;;;;14.40;74.90;;;;;;4123212;28;20406;-85
2023/09/05 06:38:10;;;;;;;;;;;14.50;76.20;;;;;;4111573;28;19929;-86
2023/09/05 06:40:32;;;;;;;;;;;14.50;77.00;;;;;;4109359;28;20398;-85
2023/09/05 06:42:52;;;;;;;;;;;14.60;77.40;;;;;;4110995;28;20379;-84
2023/09/05 06:45:11;;;;;;;;;;;14.70;77.90;;;;;;4109079;28;19925;-85
2023/09/05 06:47:31;;;;;;;;;;;14.80;77.80;;;;;;4112153;28;20000;-84
2023/09/05 06:49:50;;;;;;;;;;;15.00;78.60;;;;;;4111196;28;19925;-85
2023/09/05 06:52:09;;;;;;;;;;;15.10;78.50;;;;;;4111226;28;20135;-85
2023/09/05 06:54:28;;;;;;;;;;;15.30;78.20;;;;;;4111381;28;19998;-85
2023/09/05 06:56:47;;;;;;;;;;;15.30;78.70;;;;;;4110578;28;19960;-88
2023/09/05 06:59:17;;;;;;;;;;;15.50;79.00;;;;;;4111361;28;19945;-85
2023/09/05 07:01:37;;;;;;;;;;;15.50;78.90;;;;;;4106422;28;19969;-87
2023/09/05 07:03:56;;;;;;;;;;;15.60;79.70;;;;;;4112217;28;20006;-85
2023/09/05 07:06:18;;;;;;;;;;;15.80;79.30;;;;;;4106041;28;19945;-84
2023/09/05 07:08:38;;;;;;;;;;;15.90;79.80;;;;;;4110621;28;19921;-84
2023/09/05 07:10:57;;;;;;;;;;;16.10;79.70;;;;;;4108216;28;19973;-85
2023/09/05 07:13:16;;;;;;;;;;;16.20;80.80;;;;;;4111189;28;19925;-85
2023/09/05 07:15:36;;;;;;;;;;;16.30;80.50;;;;;;4109733;28;19968;-87
2023/09/05 07:17:55;;;;;;;;;;;16.50;80.40;;;;;;4112277;28;19925;-88
2023/09/05 07:20:14;;;;;;;;;;;16.50;80.40;;;;;;4110861;28;19968;-85
2023/09/05 07:22:33;;;;;;;;;;;16.60;80.70;;;;;;4116525;28;19938;-86
2023/09/05 07:24:52;;;;;;;;;;;16.80;80.70;;;;;;4115028;28;19921;-85
2023/09/05 07:27:12;;;;;;;;;;;17.00;80.30;;;;;;4111137;28;20029;-85
2023/09/05 07:29:33;;;;;;;;;;;17.10;80.10;;;;;;4124176;28;20371;-86
2023/09/05 07:31:52;;;;;;;;;;;17.20;80.50;;;;;;4109556;28;20043;-85
2023/09/05 07:34:11;;;;;;;;;;;17.30;80.40;;;;;;4112745;28;20404;-86
2023/09/05 07:36:32;;;;;;;;;;;17.40;79.60;;;;;;4109198;28;20036;-86
2023/09/05 07:38:52;;;;;;;;;;;17.50;79.10;;;;;;4111540;28;20412;-87
2023/09/05 07:41:11;;;;;;;;;;;17.70;79.70;;;;;;4109372;28;19930;-85
2023/09/05 07:43:32;;;;;;;;;;;17.80;79.40;;;;;;4111054;28;20021;-85
2023/09/05 07:45:54;;;;;;;;;;;18.00;78.70;;;;;;4108090;28;19984;-85
2023/09/05 07:48:14;;;;;;;;;;;18.00;78.20;;;;;;4110276;28;19925;-84
2023/09/05 07:50:33;;;;;;;;;;;18.10;77.80;;;;;;4108138;28;19921;-85
2023/09/05 07:52:53;;;;;;;;;;;18.30;77.90;;;;;;4111693;28;20028;-87
2023/09/05 07:54:53;;;;;;;;;;;18.30;77.30;;;;;;4109350;28;19918;-84
2023/09/05 07:56:54;;;;;;;;;;;18.40;76.90;;;;;;4109021;28;19918;-85
2023/09/05 07:58:55;;;;;;;;;;;18.50;76.60;;;;;;4112992;28;19921;-85
2023/09/05 08:00:55;;;;;;;;;;;18.60;76.40;;;;;;4105090;28;19918;-84
2023/09/05 08:02:57;;;;;;;;;;;18.70;76.00;;;;;;4112605;28;19949;-87
2023/09/05 08:05:00;;;;;;;;;;;18.80;75.80;;;;;;4111714;28;19918;-86
2023/09/05 08:07:00;;;;;;;;;;;18.90;75.70;;;;;;4105334;28;19922;-87
2023/09/05 08:09:04;;;;;;;;;;;18.90;75.50;;;;;;4108960;28;19976;-85
2023/09/05 08:11:13;;;;;;;;;;;19.00;75.40;;;;;;4112001;28;19971;-84
2023/09/05 08:13:15;;;;;;;;;;;19.10;75.00;;;;;;4111251;28;19918;-85
2023/09/05 08:15:15;;;;;;;;;;;19.20;74.80;;;;;;4112752;28;19930;-85
2023/09/05 08:17:16;;;;;;;;;;;19.30;74.50;;;;;;4109414;28;19922;-86
2023/09/05 08:19:16;;;;;;;;;;;19.40;74.30;;;;;;4125373;28;19918;-85
2023/09/05 08:21:18;;;;;;;;;;;19.60;74.20;;;;;;4108660;28;19914;-85
2023/09/05 08:23:22;;;;;;;;;;;19.60;73.90;;;;;;4109378;28;19921;-85
2023/09/05 08:25:24;;;;;;;;;;;19.70;73.30;;;;;;4104641;28;19922;-86
2023/09/05 08:27:28;;;;;;;;;;;19.70;72.40;;;;;;4122873;28;20399;-85
2023/09/05 08:29:29;;;;;;;;;;;19.80;72.30;;;;;;4110011;28;19941;-84
2023/09/05 08:31:30;;;;;;;;;;;19.90;71.80;;;;;;4120925;28;20495;-84
2023/09/05 08:33:30;;;;;;;;;;;20.00;71.70;;;;;;4111497;28;19937;-85
2023/09/05 08:35:31;;;;;;;;;;;20.00;71.50;;;;;;4106871;28;19969;-85
2023/09/05 08:37:32;;;;;;;;;;;20.10;71.40;;;;;;4091249;28;20058;-85
2023/09/05 08:39:32;;;;;;;;;;;20.10;71.30;;;;;;4109397;28;19949;-85
2023/09/05 08:41:37;;;;;;;;;;;20.20;71.00;;;;;;4122464;28;19933;-85
2023/09/05 08:43:38;;;;;;;;;;;20.30;70.00;;;;;;4108592;28;19949;-85
2023/09/05 08:45:39;;;;;;;;;;;20.20;69.40;;;;;;4106534;28;19980;-85
2023/09/05 08:47:39;;;;;;;;;;;20.30;68.80;;;;;;4108501;28;20255;-84
2023/09/05 08:49:40;;;;;;;;;;;20.30;68.70;;;;;;4108788;28;19962;-87
2023/09/05 08:51:41;;;;;;;;;;;20.40;69.00;;;;;;4106262;28;20021;-85
2023/09/05 08:53:45;;;;;;;;;;;20.40;68.30;;;;;;4109335;28;19922;-85
2023/09/05 08:55:45;;;;;;;;;;;20.40;67.60;;;;;;4105043;28;20449;-85
2023/09/05 08:57:47;;;;;;;;;;;20.50;68.20;;;;;;4123504;28;19914;-86
2023/09/05 08:59:48;;;;;;;;;;;20.50;67.00;;;;;;4094972;28;20004;-85
2023/09/05 09:01:49;;;;;;;;;;;20.50;67.60;;;;;;4108002;28;19918;-85
2023/09/05 09:03:50;;;;;;;;;;;20.60;67.80;;;;;;4104090;28;19964;-86
2023/09/05 09:05:51;;;;;;;;;;;20.50;67.70;;;;;;4087776;28;19958;-85
2023/09/05 09:07:54;;;;;;;;;;;20.60;67.80;;;;;;4106491;28;21082;-87
2023/09/05 09:09:58;;;;;;;;;;;20.60;67.90;;;;;;4106768;28;19922;-85
2023/09/05 09:12:00;;;;;;;;;;;20.60;67.90;;;;;;4107575;28;19941;-85
2023/09/05 09:14:03;;;;;;;;;;;20.60;68.30;;;;;;4123902;28;20314;-85
2023/09/05 09:16:06;;;;;;;;;;;20.60;68.10;;;;;;4108273;28;20005;-84
2023/09/05 09:18:09;;;;;;;;;;;20.70;68.10;;;;;;4105840;28;19918;-87
2023/09/05 09:20:12;;;;;;;;;;;20.70;67.60;;;;;;4104166;28;20431;-86
2023/09/05 09:22:12;;;;;;;;;;;20.80;66.70;;;;;;4109232;28;20009;-85
2023/09/05 09:24:16;;;;;;;;;;;20.80;65.30;;;;;;4109216;28;20087;-84
2023/09/05 09:26:17;;;;;;;;;;;20.80;63.50;;;;;;4090847;28;20384;-85
2023/09/05 09:28:21;;;;;;;;;;;20.90;64.60;;;;;;4109153;28;19924;-85
2023/09/05 09:30:23;;;;;;;;;;;20.90;65.10;;;;;;4104939;28;19988;-85
2023/09/05 09:32:24;;;;;;;;;;;20.90;65.40;;;;;;4106601;28;19914;-85
2023/09/05 09:34:24;;;;;;;;;;;21.00;65.70;;;;;;4109981;28;20418;-86
2023/09/05 09:36:35;;;;;;;;;;;21.00;65.80;;;;;;4106863;28;19922;-85
2023/09/05 09:38:36;;;;;;;;;;;21.10;63.90;;;;;;4107598;28;19921;-85
2023/09/05 09:40:37;;;;;;;;;;;21.20;63.90;;;;;;4105576;28;20475;-85
2023/09/05 09:42:37;;;;;;;;;;;21.20;63.80;;;;;;4108467;28;19918;-85
2023/09/05 09:44:38;;;;;;;;;;;21.30;64.60;;;;;;4108724;28;20304;-85
2023/09/05 09:46:39;;;;;;;;;;;21.30;64.60;;;;;;4105877;28;19972;-87
2023/09/05 09:48:41;;;;;;;;;;;21.40;65.10;;;;;;4111134;28;20335;-84
2023/09/05 09:50:45;;;;;;;;;;;21.50;65.20;;;;;;4104750;28;20404;-85
2023/09/05 09:52:46;;;;;;;;;;;21.60;64.70;;;;;;4107965;28;19918;-85
2023/09/05 09:54:48;;;;;;;;;;;21.70;65.00;;;;;;4108859;28;20403;-85
2023/09/05 09:56:48;;;;;;;;;;;21.80;64.00;;;;;;4106525;28;19965;-86
2023/09/05 09:58:50;;;;;;;;;;;21.90;65.30;;;;;;4109210;28;19997;-84
2023/09/05 10:01:04;;;;;;;;;;;21.90;63.30;;;;;;4105439;28;19922;-83
2023/09/05 10:03:25;;;;;;;;;;;22.00;63.50;;;;;;4112245;28;19918;-85
2023/09/05 10:05:30;;;;;;;;;;;22.10;63.80;;;;;;4106698;28;19914;-85
2023/09/05 10:07:52;;;;;;;;;;;22.20;64.40;;;;;;4111287;28;20076;-84
2023/09/05 10:09:53;;;;;;;;;;;22.30;65.00;;;;;;4104906;28;19941;-84
2023/09/05 10:12:14;;;;;;;;;;;22.30;64.60;;;;;;4105606;28;19922;-85
2023/09/05 10:14:37;;;;;;;;;;;22.40;64.40;;;;;;4111615;28;20298;-84
2023/09/05 10:16:58;;;;;;;;;;;22.50;64.20;;;;;;4109414;28;19992;-86
2023/09/05 10:19:21;;;;;;;;;;;22.60;64.40;;;;;;4114782;28;19964;-84
2023/09/05 10:21:42;;;;;;;;;;;22.70;64.60;;;;;;4104974;28;19926;-84
2023/09/05 10:24:06;;;;;;;;;;;22.80;61.00;;;;;;4111848;28;20280;-86
2023/09/05 10:26:27;;;;;;;;;;;22.80;61.90;;;;;;4110448;28;20315;-85
2023/09/05 10:28:48;;;;;;;;;;;22.90;60.10;;;;;;4111359;28;20033;-88
2023/09/05 10:31:15;;;;;;;;;;;23.00;60.00;;;;;;4106485;28;20344;-85
2023/09/05 10:33:36;;;;;;;;;;;23.10;60.70;;;;;;4112469;28;19914;-85
2023/09/05 10:35:57;;;;;;;;;;;23.10;59.90;;;;;;4125233;28;20334;-85
2023/09/05 10:38:19;;;;;;;;;;;23.10;59.90;;;;;;4111824;28;19917;-85
2023/09/05 10:40:40;;;;;;;;;;;23.20;58.00;;;;;;4109823;28;20406;-84
2023/09/05 10:43:04;;;;;;;;;;;23.20;57.50;;;;;;4110164;28;19984;-86
2023/09/05 10:45:25;;;;;;;;;;;23.20;57.30;;;;;;4122966;28;19980;-86
2023/09/05 10:47:47;;;;;;;;;;;23.20;57.80;;;;;;4110033;28;19922;-85
2023/09/05 10:50:12;;;;;;;;;;;23.30;57.50;;;;;;4121677;28;20273;-86
2023/09/05 10:52:33;;;;;;;;;;;23.30;57.70;;;;;;4111217;28;20505;-84
2023/09/05 10:54:53;;;;;;;;;;;23.30;56.90;;;;;;4109683;28;19933;-85
2023/09/05 10:57:33;;;;;;;;;;;23.30;55.60;;;;;;4109925;28;19964;-84
2023/09/05 10:59:54;;;;;;;;;;;23.30;55.80;;;;;;4110262;28;20017;-84
2023/09/05 11:02:14;;;;;;;;;;;23.30;54.10;;;;;;4108782;28;20368;-85
2023/09/05 11:04:38;;;;;;;;;;;23.40;55.50;;;;;;4109565;28;20021;-85
2023/09/05 11:07:06;;;;;;;;;;;23.40;53.50;;;;;;4111194;28;20022;-86
2023/09/05 11:09:27;;;;;;;;;;;23.40;54.00;;;;;;4123833;28;19913;-85
2023/09/05 11:11:47;;;;;;;;;;;23.40;53.90;;;;;;4108534;28;20269;-85
2023/09/05 11:14:08;;;;;;;;;;;23.50;53.40;;;;;;4109933;28;20363;-84
2023/09/05 11:16:28;;;;;;;;;;;23.50;54.00;;;;;;4106580;28;19922;-84
2023/09/05 11:18:55;;;;;;;;;;;23.60;53.60;;;;;;4111904;28;19918;-84
2023/09/05 11:21:23;;;;;;;;;;;23.50;53.00;;;;;;4110017;28;19914;-86
2023/09/05 11:23:50;;;;;;;;;;;23.60;54.50;;;;;;4113125;28;20023;-84
2023/09/05 11:26:11;;;;;;;;;;;23.60;53.70;;;;;;4107784;28;19922;-85
2023/09/05 11:28:32;;;;;;;;;;;23.60;54.50;;;;;;4109438;28;20159;-87
2023/09/05 11:30:56;;;;;;;;;;;23.70;54.30;;;;;;4106659;28;19930;-84
2023/09/05 11:33:17;;;;;;;;;;;23.70;54.20;;;;;;4111563;28;19954;-85
2023/09/05 11:35:38;;;;;;;;;;;23.70;52.20;;;;;;4107170;28;19922;-88
2023/09/05 11:37:58;;;;;;;;;;;23.70;51.80;;;;;;4113136;28;20401;-84
2023/09/05 11:40:22;;;;;;;;;;;23.70;52.10;;;;;;4107154;28;19925;-84
2023/09/05 11:42:42;;;;;;;;;;;23.70;52.80;;;;;;4109475;28;19984;-83
2023/09/05 11:45:01;;;;;;;;;;;23.60;51.10;;;;;;4108577;28;19933;-85
2023/09/05 11:47:22;;;;;;;;;;;23.70;51.90;;;;;;4111089;28;19933;-86
2023/09/05 11:49:42;;;;;;;;;;;23.70;52.20;;;;;;4111026;28;19964;-84
2023/09/05 11:52:01;;;;;;;;;;;23.70;51.50;;;;;;4119063;28;20358;-83
2023/09/05 11:54:21;;;;;;;;;;;23.70;52.60;;;;;;4112629;28;20087;-85
2023/09/05 11:56:41;;;;;;;;;;;23.70;50.00;;;;;;4111021;28;20394;-85
2023/09/05 11:59:00;;;;;;;;;;;23.80;51.40;;;;;;4101694;28;20266;-84
2023/09/05 12:04:40;;;;;;;;;;;23.80;51.00;;;;;;4083493;28;20340;-84
2023/09/05 12:07:00;;;;;;;;;;;23.80;50.80;;;;;;4076388;29;19930;-84
2023/09/05 12:09:20;;;;;;;;;;;23.80;52.20;;;;;;4088120;29;20022;-84
2023/09/05 12:11:42;;;;;;;;;;;23.90;52.40;;;;;;4084678;28;19973;-86
2023/09/05 12:14:02;;;;;;;;;;;23.90;50.90;;;;;;4086850;28;19976;-84
2023/09/05 12:16:22;;;;;;;;;;;23.90;50.20;;;;;;4081211;28;20009;-88
2023/09/05 12:18:41;;;;;;;;;;;23.90;51.70;;;;;;4084319;29;20539;-85
2023/09/05 12:21:01;;;;;;;;;;;23.90;51.00;;;;;;4080400;28;20046;-83
2023/09/05 12:23:23;;;;;;;;;;;24.00;51.20;;;;;;4084923;28;20663;-85
2023/09/05 12:25:46;;;;;;;;;;;23.90;49.40;;;;;;4083187;29;19928;-85
2023/09/05 12:28:20;;;;;;;;;;;24.00;50.00;;;;;;4087035;28;20340;-84
2023/09/05 12:30:39;;;;;;;;;;;23.90;50.20;;;;;;4085653;28;19986;-85
2023/09/05 12:33:01;;;;;;;;;;;24.00;49.20;;;;;;4086297;28;19930;-85
2023/09/05 12:35:21;;;;;;;;;;;23.90;49.10;;;;;;4087082;28;20016;-84
2023/09/05 12:37:40;;;;;;;;;;;24.00;49.70;;;;;;4086354;28;19922;-85
2023/09/05 12:40:00;;;;;;;;;;;24.00;49.50;;;;;;4086464;29;19940;-88
2023/09/05 12:42:19;;;;;;;;;;;24.00;48.40;;;;;;4104350;28;19929;-85
2023/09/05 12:44:38;;;;;;;;;;;23.90;48.50;;;;;;4120301;28;20058;-84
2023/09/05 12:46:58;;;;;;;;;;;24.00;50.30;;;;;;4104426;28;20446;-86
2023/09/05 12:49:17;;;;;;;;;;;23.90;48.30;;;;;;4106389;28;19929;-84
2023/09/05 12:51:36;;;;;;;;;;;23.90;48.50;;;;;;4101031;28;19925;-84
2023/09/05 12:54:00;;;;;;;;;;;24.00;48.90;;;;;;4106572;28;20415;-85
2023/09/05 12:56:19;;;;;;;;;;;24.00;48.30;;;;;;4099332;28;19929;-86
2023/09/05 12:58:39;;;;;;;;;;;24.00;49.00;;;;;;4099622;28;19967;-84
2023/09/05 13:00:59;;;;;;;;;;;24.00;50.10;;;;;;4099232;28;19926;-86
2023/09/05 13:03:19;;;;;;;;;;;24.00;49.70;;;;;;4109524;28;19941;-87
2023/09/05 13:05:39;;;;;;;;;;;24.10;50.60;;;;;;4108956;28;19925;-85
2023/09/05 13:07:59;;;;;;;;;;;24.10;49.30;;;;;;4140715;28;19956;-83
2023/09/05 13:10:18;;;;;;;;;;;24.10;50.00;;;;;;4114255;28;19920;-85
2023/09/05 13:12:40;;;;;;;;;;;24.10;49.30;;;;;;4112323;28;19973;-84
2023/09/05 13:15:00;;;;;;;;;;;24.10;48.80;;;;;;4106819;28;19973;-84